sensor_id;sensor_type;location;lat;lon;timestamp;temperature;humidity
3281;DHT22;1652;51.318;6.202;2022-10-30T00:01:03;14.20;99.90
3281;DHT22;1652;51.318;6.202;2022-10-30T00:03:30;14.30;99.90
3281;DHT22;1652;51.318;6.202;2022-10-30T00:05:57;14.30;99.90
3281;DHT22;1652;51.318;6.202;2022-10-30T00:08:24;14.30;99.90
3281;DHT22;1652;51.318;6.202;2022-10-30T00:10:52;14.30;99.90
3281;DHT22;1652;51.318;6.202;2022-10-30T00:13:19;14.30;99.90
3281;DHT22;1652;51.318;6.202;2022-10-30T00:15:51;14.30;99.90
3281;DHT22;1652;51.318;6.202;2022-10-30T00:18:19;14.20;99.90
3281;DHT22;1652;51.318;6.202;2022-10-30T00:20:46;14.20;99.90
3281;DHT22;1652;51.318;6.202;2022-10-30T00:23:14;14.10;99.90
3281;DHT22;1652;51.318;6.202;2022-10-30T00:25:41;14.10;99.90
3281;DHT22;1652;51.318;6.202;2022-10-30T00:28:08;14.10;99.90
3281;DHT22;1652;51.318;6.202;2022-10-30T00:30:35;14.10;99.90
3281;DHT22;1652;51.318;6.202;2022-10-30T00:33:03;14.10;99.90
3281;DHT22;1652;51.318;6.202;2022-10-30T00:35:30;14.00;99.90
3281;DHT22;1652;51.318;6.202;2022-10-30T00:37:59;14.00;99.90
3281;DHT22;1652;51.318;6.202;2022-10-30T00:40:27;14.00;99.90
3281;DHT22;1652;51.318;6.202;2022-10-30T00:42:54;14.00;99.90
3281;DHT22;1652;51.318;6.202;2022-10-30T00:45:21;14.10;99.90
3281;DHT22;1652;51.318;6.202;2022-10-30T00:47:55;14.00;99.90
3281;DHT22;1652;51.318;6.202;2022-10-30T00:50:31;14.00;99.90
3281;DHT22;1652;51.318;6.202;2022-10-30T00:53:08;14.00;99.90
3281;DHT22;1652;51.318;6.202;2022-10-30T00:55:42;14.00;99.90
3281;DHT22;1652;51.318;6.202;2022-10-30T00:58:12;14.00;99.90
3281;DHT22;1652;51.318;6.202;2022-10-30T01:00:45;13.90;99.90
3281;DHT22;1652;51.318;6.202;2022-10-30T01:03:14;13.90;99.90
3281;DHT22;1652;51.318;6.202;2022-10-30T01:05:42;13.80;99.90
3281;DHT22;1652;51.318;6.202;2022-10-30T01:08:11;13.90;99.90
3281;DHT22;1652;51.318;6.202;2022-10-30T01:10:38;13.90;99.90
3281;DHT22;1652;51.318;6.202;2022-10-30T01:13:05;13.80;99.90
3281;DHT22;1652;51.318;6.202;2022-10-30T01:15:37;13.80;99.90
3281;DHT22;1652;51.318;6.202;2022-10-30T01:18:34;13.80;99.90
3281;DHT22;1652;51.318;6.202;2022-10-30T01:30:03;13.50;99.90
3281;DHT22;1652;51.318;6.202;2022-10-30T01:35:42;13.30;99.90
3281;DHT22;1652;51.318;6.202;2022-10-30T01:38:23;13.30;99.90
3281;DHT22;1652;51.318;6.202;2022-10-30T01:40:52;13.30;99.90
3281;DHT22;1652;51.318;6.202;2022-10-30T01:43:19;13.20;99.90
3281;DHT22;1652;51.318;6.202;2022-10-30T01:46:34;13.10;99.90
3281;DHT22;1652;51.318;6.202;2022-10-30T01:49:11;13.20;99.90
3281;DHT22;1652;51.318;6.202;2022-10-30T01:52:04;13.10;99.90
3281;DHT22;1652;51.318;6.202;2022-10-30T01:54:52;13.10;99.90
3281;DHT22;1652;51.318;6.202;2022-10-30T01:57:39;13.00;99.90
3281;DHT22;1652;51.318;6.202;2022-10-30T02:00:13;13.00;99.90
3281;DHT22;1652;51.318;6.202;2022-10-30T02:02:45;13.00;99.90
3281;DHT22;1652;51.318;6.202;2022-10-30T02:05:27;13.00;99.90
3281;DHT22;1652;51.318;6.202;2022-10-30T02:07:55;12.90;99.90
3281;DHT22;1652;51.318;6.202;2022-10-30T02:10:24;12.80;99.90
3281;DHT22;1652;51.318;6.202;2022-10-30T02:12:53;12.80;99.90
3281;DHT22;1652;51.318;6.202;2022-10-30T02:15:22;12.80;99.90
3281;DHT22;1652;51.318;6.202;2022-10-30T02:17:49;12.70;99.90
3281;DHT22;1652;51.318;6.202;2022-10-30T02:20:18;12.70;99.90
3281;DHT22;1652;51.318;6.202;2022-10-30T02:22:45;12.60;99.90
3281;DHT22;1652;51.318;6.202;2022-10-30T02:25:13;12.50;99.90
3281;DHT22;1652;51.318;6.202;2022-10-30T02:27:41;12.60;99.90
3281;DHT22;1652;51.318;6.202;2022-10-30T02:30:10;12.50;99.90
3281;DHT22;1652;51.318;6.202;2022-10-30T02:32:37;12.50;99.90
3281;DHT22;1652;51.318;6.202;2022-10-30T02:35:05;12.50;99.90
3281;DHT22;1652;51.318;6.202;2022-10-30T02:37:32;12.50;99.90
3281;DHT22;1652;51.318;6.202;2022-10-30T02:40:02;12.50;99.90
3281;DHT22;1652;51.318;6.202;2022-10-30T02:42:30;12.40;99.90
3281;DHT22;1652;51.318;6.202;2022-10-30T02:44:57;12.50;99.90
3281;DHT22;1652;51.318;6.202;2022-10-30T02:47:24;12.50;99.90
3281;DHT22;1652;51.318;6.202;2022-10-30T02:49:51;12.40;99.90
3281;DHT22;1652;51.318;6.202;2022-10-30T02:52:18;12.40;99.90
3281;DHT22;1652;51.318;6.202;2022-10-30T02:54:45;12.50;99.90
3281;DHT22;1652;51.318;6.202;2022-10-30T02:57:12;12.40;99.90
3281;DHT22;1652;51.318;6.202;2022-10-30T02:59:39;12.40;99.90
3281;DHT22;1652;51.318;6.202;2022-10-30T03:02:06;12.30;99.90
3281;DHT22;1652;51.318;6.202;2022-10-30T03:04:33;12.30;99.90
3281;DHT22;1652;51.318;6.202;2022-10-30T03:07:00;12.30;99.90
3281;DHT22;1652;51.318;6.202;2022-10-30T03:09:27;12.40;99.90
3281;DHT22;1652;51.318;6.202;2022-10-30T03:11:54;12.40;99.90
3281;DHT22;1652;51.318;6.202;2022-10-30T03:14:22;12.30;99.90
3281;DHT22;1652;51.318;6.202;2022-10-30T03:16:48;12.20;99.90
3281;DHT22;1652;51.318;6.202;2022-10-30T03:19:18;12.20;99.90
3281;DHT22;1652;51.318;6.202;2022-10-30T03:21:45;12.20;99.90
3281;DHT22;1652;51.318;6.202;2022-10-30T03:24:13;12.20;99.90
3281;DHT22;1652;51.318;6.202;2022-10-30T03:26:40;12.20;99.90
3281;DHT22;1652;51.318;6.202;2022-10-30T03:29:07;12.10;99.90
3281;DHT22;1652;51.318;6.202;2022-10-30T03:31:34;12.10;99.90
3281;DHT22;1652;51.318;6.202;2022-10-30T03:34:14;12.20;99.90
3281;DHT22;1652;51.318;6.202;2022-10-30T03:36:41;12.10;99.90
3281;DHT22;1652;51.318;6.202;2022-10-30T03:39:08;12.10;99.90
3281;DHT22;1652;51.318;6.202;2022-10-30T03:41:36;12.10;99.90
3281;DHT22;1652;51.318;6.202;2022-10-30T03:44:03;12.00;99.90
3281;DHT22;1652;51.318;6.202;2022-10-30T03:46:30;12.00;99.90
3281;DHT22;1652;51.318;6.202;2022-10-30T03:49:12;11.90;99.90
3281;DHT22;1652;51.318;6.202;2022-10-30T03:51:38;11.90;99.90
3281;DHT22;1652;51.318;6.202;2022-10-30T03:54:06;12.00;99.90
3281;DHT22;1652;51.318;6.202;2022-10-30T03:56:33;11.90;99.90
3281;DHT22;1652;51.318;6.202;2022-10-30T03:59:01;11.90;99.90
3281;DHT22;1652;51.318;6.202;2022-10-30T04:01:28;11.80;99.90
3281;DHT22;1652;51.318;6.202;2022-10-30T04:03:56;11.70;99.90
3281;DHT22;1652;51.318;6.202;2022-10-30T04:06:25;11.70;99.90
3281;DHT22;1652;51.318;6.202;2022-10-30T04:08:53;11.70;99.90
3281;DHT22;1652;51.318;6.202;2022-10-30T04:11:22;11.70;99.90
3281;DHT22;1652;51.318;6.202;2022-10-30T04:13:49;11.70;99.90
3281;DHT22;1652;51.318;6.202;2022-10-30T04:16:15;11.60;99.90
3281;DHT22;1652;51.318;6.202;2022-10-30T04:18:43;11.70;99.90
3281;DHT22;1652;51.318;6.202;2022-10-30T04:21:10;11.60;99.90
3281;DHT22;1652;51.318;6.202;2022-10-30T04:23:37;11.60;99.90
3281;DHT22;1652;51.318;6.202;2022-10-30T04:26:05;11.50;99.90
3281;DHT22;1652;51.318;6.202;2022-10-30T04:28:36;11.50;99.90
3281;DHT22;1652;51.318;6.202;2022-10-30T04:31:03;11.40;99.90
3281;DHT22;1652;51.318;6.202;2022-10-30T04:33:31;11.40;99.90
3281;DHT22;1652;51.318;6.202;2022-10-30T04:35:59;11.40;99.90
3281;DHT22;1652;51.318;6.202;2022-10-30T04:38:26;11.40;99.90
3281;DHT22;1652;51.318;6.202;2022-10-30T04:40:54;11.40;99.90
3281;DHT22;1652;51.318;6.202;2022-10-30T04:43:29;11.30;99.90
3281;DHT22;1652;51.318;6.202;2022-10-30T04:45:56;11.30;99.90
3281;DHT22;1652;51.318;6.202;2022-10-30T04:48:27;11.30;99.90
3281;DHT22;1652;51.318;6.202;2022-10-30T04:50:57;11.30;99.90
3281;DHT22;1652;51.318;6.202;2022-10-30T04:53:25;11.20;99.90
3281;DHT22;1652;51.318;6.202;2022-10-30T04:56:01;11.30;99.90
3281;DHT22;1652;51.318;6.202;2022-10-30T04:58:30;11.20;99.90
3281;DHT22;1652;51.318;6.202;2022-10-30T05:01:04;11.30;99.90
3281;DHT22;1652;51.318;6.202;2022-10-30T05:03:33;11.30;99.90
3281;DHT22;1652;51.318;6.202;2022-10-30T05:06:06;11.20;99.90
3281;DHT22;1652;51.318;6.202;2022-10-30T05:08:33;11.20;99.90
3281;DHT22;1652;51.318;6.202;2022-10-30T05:11:07;11.20;99.90
3281;DHT22;1652;51.318;6.202;2022-10-30T05:13:34;11.10;99.90
3281;DHT22;1652;51.318;6.202;2022-10-30T05:16:01;11.10;99.90
3281;DHT22;1652;51.318;6.202;2022-10-30T05:18:28;11.10;99.90
3281;DHT22;1652;51.318;6.202;2022-10-30T05:20:55;11.10;99.90
3281;DHT22;1652;51.318;6.202;2022-10-30T05:23:22;11.10;99.90
3281;DHT22;1652;51.318;6.202;2022-10-30T05:25:50;11.10;99.90
3281;DHT22;1652;51.318;6.202;2022-10-30T05:28:18;11.10;99.90
3281;DHT22;1652;51.318;6.202;2022-10-30T05:30:52;11.00;99.90
3281;DHT22;1652;51.318;6.202;2022-10-30T05:33:39;11.00;99.90
3281;DHT22;1652;51.318;6.202;2022-10-30T05:36:06;11.00;99.90
3281;DHT22;1652;51.318;6.202;2022-10-30T05:38:33;11.00;99.90
3281;DHT22;1652;51.318;6.202;2022-10-30T05:41:01;11.00;99.90
3281;DHT22;1652;51.318;6.202;2022-10-30T05:43:28;11.20;99.90
3281;DHT22;1652;51.318;6.202;2022-10-30T05:45:55;11.20;99.90
3281;DHT22;1652;51.318;6.202;2022-10-30T05:48:22;11.10;99.90
3281;DHT22;1652;51.318;6.202;2022-10-30T05:50:49;11.20;99.90
3281;DHT22;1652;51.318;6.202;2022-10-30T05:53:24;11.20;99.90
3281;DHT22;1652;51.318;6.202;2022-10-30T05:55:57;11.30;99.90
3281;DHT22;1652;51.318;6.202;2022-10-30T05:58:27;11.40;99.90
3281;DHT22;1652;51.318;6.202;2022-10-30T06:00:57;11.30;99.90
3281;DHT22;1652;51.318;6.202;2022-10-30T06:03:38;11.20;99.90
3281;DHT22;1652;51.318;6.202;2022-10-30T06:06:06;11.20;99.90
3281;DHT22;1652;51.318;6.202;2022-10-30T06:08:32;11.20;99.90
3281;DHT22;1652;51.318;6.202;2022-10-30T06:11:08;11.20;99.90
3281;DHT22;1652;51.318;6.202;2022-10-30T06:13:39;11.10;99.90
3281;DHT22;1652;51.318;6.202;2022-10-30T06:16:10;11.00;99.90
3281;DHT22;1652;51.318;6.202;2022-10-30T06:18:56;11.00;99.90
3281;DHT22;1652;51.318;6.202;2022-10-30T06:21:24;10.90;99.90
3281;DHT22;1652;51.318;6.202;2022-10-30T06:24:12;10.90;99.90
3281;DHT22;1652;51.318;6.202;2022-10-30T06:27:05;10.90;99.90
3281;DHT22;1652;51.318;6.202;2022-10-30T06:29:32;10.90;99.90
3281;DHT22;1652;51.318;6.202;2022-10-30T06:31:59;10.90;99.90
3281;DHT22;1652;51.318;6.202;2022-10-30T06:34:32;10.80;99.90
3281;DHT22;1652;51.318;6.202;2022-10-30T06:36:59;10.90;99.90
3281;DHT22;1652;51.318;6.202;2022-10-30T06:39:26;11.00;99.90
3281;DHT22;1652;51.318;6.202;2022-10-30T06:42:11;11.00;99.90
3281;DHT22;1652;51.318;6.202;2022-10-30T06:45:05;11.00;99.90
3281;DHT22;1652;51.318;6.202;2022-10-30T06:47:36;11.00;99.90
3281;DHT22;1652;51.318;6.202;2022-10-30T06:50:04;11.10;99.90
3281;DHT22;1652;51.318;6.202;2022-10-30T06:52:31;11.30;99.90
3281;DHT22;1652;51.318;6.202;2022-10-30T06:54:59;11.50;99.90
3281;DHT22;1652;51.318;6.202;2022-10-30T06:57:56;11.60;99.90
3281;DHT22;1652;51.318;6.202;2022-10-30T07:00:42;11.70;99.90
3281;DHT22;1652;51.318;6.202;2022-10-30T07:03:21;11.70;99.90
3281;DHT22;1652;51.318;6.202;2022-10-30T07:05:48;11.60;99.90
3281;DHT22;1652;51.318;6.202;2022-10-30T07:08:15;11.60;99.90
3281;DHT22;1652;51.318;6.202;2022-10-30T07:10:42;11.70;99.90
3281;DHT22;1652;51.318;6.202;2022-10-30T07:13:24;11.80;99.90
3281;DHT22;1652;51.318;6.202;2022-10-30T07:16:17;12.00;99.90
3281;DHT22;1652;51.318;6.202;2022-10-30T07:18:46;12.10;99.90
3281;DHT22;1652;51.318;6.202;2022-10-30T07:21:13;12.30;99.90
3281;DHT22;1652;51.318;6.202;2022-10-30T07:23:40;12.60;99.90
3281;DHT22;1652;51.318;6.202;2022-10-30T07:26:27;12.90;99.90
3281;DHT22;1652;51.318;6.202;2022-10-30T07:28:58;13.30;99.90
3281;DHT22;1652;51.318;6.202;2022-10-30T07:31:37;13.50;99.90
3281;DHT22;1652;51.318;6.202;2022-10-30T07:34:26;13.70;99.90
3281;DHT22;1652;51.318;6.202;2022-10-30T07:37:03;13.80;99.90
3281;DHT22;1652;51.318;6.202;2022-10-30T07:39:38;13.90;99.90
3281;DHT22;1652;51.318;6.202;2022-10-30T07:42:21;14.20;99.90
3281;DHT22;1652;51.318;6.202;2022-10-30T07:45:07;14.50;99.90
3281;DHT22;1652;51.318;6.202;2022-10-30T07:48:19;14.90;99.90
3281;DHT22;1652;51.318;6.202;2022-10-30T07:51:06;15.20;99.90
3281;DHT22;1652;51.318;6.202;2022-10-30T07:53:33;15.40;99.90
3281;DHT22;1652;51.318;6.202;2022-10-30T07:56:02;15.60;99.90
3281;DHT22;1652;51.318;6.202;2022-10-30T07:58:47;16.00;99.90
3281;DHT22;1652;51.318;6.202;2022-10-30T08:01:34;16.60;99.90
3281;DHT22;1652;51.318;6.202;2022-10-30T08:04:21;17.10;95.10
3281;DHT22;1652;51.318;6.202;2022-10-30T08:06:48;16.90;96.10
3281;DHT22;1652;51.318;6.202;2022-10-30T08:09:15;16.70;97.00
3281;DHT22;1652;51.318;6.202;2022-10-30T08:11:45;16.30;99.90
3281;DHT22;1652;51.318;6.202;2022-10-30T08:14:12;16.00;99.90
3281;DHT22;1652;51.318;6.202;2022-10-30T08:16:39;15.70;99.90
3281;DHT22;1652;51.318;6.202;2022-10-30T08:19:07;15.70;99.90
3281;DHT22;1652;51.318;6.202;2022-10-30T08:21:34;15.70;99.90
3281;DHT22;1652;51.318;6.202;2022-10-30T08:24:09;15.80;99.90
3281;DHT22;1652;51.318;6.202;2022-10-30T08:26:38;15.90;99.90
3281;DHT22;1652;51.318;6.202;2022-10-30T08:29:07;15.90;99.90
3281;DHT22;1652;51.318;6.202;2022-10-30T08:31:34;16.00;99.90
3281;DHT22;1652;51.318;6.202;2022-10-30T08:34:02;16.00;99.90
3281;DHT22;1652;51.318;6.202;2022-10-30T08:36:43;16.20;99.90
3281;DHT22;1652;51.318;6.202;2022-10-30T08:39:16;16.40;99.90
3281;DHT22;1652;51.318;6.202;2022-10-30T08:41:57;16.50;99.90
3281;DHT22;1652;51.318;6.202;2022-10-30T08:44:29;16.50;99.90
3281;DHT22;1652;51.318;6.202;2022-10-30T08:47:22;16.50;99.90
3281;DHT22;1652;51.318;6.202;2022-10-30T08:49:49;16.50;99.90
3281;DHT22;1652;51.318;6.202;2022-10-30T08:52:19;16.50;99.90
3281;DHT22;1652;51.318;6.202;2022-10-30T08:54:52;16.50;99.90
3281;DHT22;1652;51.318;6.202;2022-10-30T08:57:22;16.60;99.90
3281;DHT22;1652;51.318;6.202;2022-10-30T08:59:50;16.50;99.90
3281;DHT22;1652;51.318;6.202;2022-10-30T09:02:37;16.60;99.90
3281;DHT22;1652;51.318;6.202;2022-10-30T09:05:39;16.70;99.90
3281;DHT22;1652;51.318;6.202;2022-10-30T09:08:24;16.80;99.90
3281;DHT22;1652;51.318;6.202;2022-10-30T09:11:08;16.80;99.90
3281;DHT22;1652;51.318;6.202;2022-10-30T09:13:36;16.90;99.90
3281;DHT22;1652;51.318;6.202;2022-10-30T09:16:05;16.90;99.90
3281;DHT22;1652;51.318;6.202;2022-10-30T09:18:34;17.00;99.90
3281;DHT22;1652;51.318;6.202;2022-10-30T09:21:01;17.00;99.90
3281;DHT22;1652;51.318;6.202;2022-10-30T09:23:35;17.20;99.90
3281;DHT22;1652;51.318;6.202;2022-10-30T09:26:21;17.20;99.90
3281;DHT22;1652;51.318;6.202;2022-10-30T09:28:57;17.40;99.90
3281;DHT22;1652;51.318;6.202;2022-10-30T09:31:58;17.40;99.90
3281;DHT22;1652;51.318;6.202;2022-10-30T09:34:28;17.50;99.90
3281;DHT22;1652;51.318;6.202;2022-10-30T09:37:04;17.60;99.90
3281;DHT22;1652;51.318;6.202;2022-10-30T09:39:35;17.60;99.90
3281;DHT22;1652;51.318;6.202;2022-10-30T09:42:31;17.60;99.90
3281;DHT22;1652;51.318;6.202;2022-10-30T09:45:27;17.60;99.90
3281;DHT22;1652;51.318;6.202;2022-10-30T10:02:03;17.80;99.90
3281;DHT22;1652;51.318;6.202;2022-10-30T10:04:43;17.80;99.90
3281;DHT22;1652;51.318;6.202;2022-10-30T10:07:20;17.90;99.90
3281;DHT22;1652;51.318;6.202;2022-10-30T10:09:59;17.90;99.90
3281;DHT22;1652;51.318;6.202;2022-10-30T10:12:48;17.90;99.90
3281;DHT22;1652;51.318;6.202;2022-10-30T10:15:41;17.90;99.90
3281;DHT22;1652;51.318;6.202;2022-10-30T10:18:16;17.90;99.90
3281;DHT22;1652;51.318;6.202;2022-10-30T10:20:47;17.90;99.90
3281;DHT22;1652;51.318;6.202;2022-10-30T10:23:18;18.00;99.90
3281;DHT22;1652;51.318;6.202;2022-10-30T10:25:52;18.00;99.90
3281;DHT22;1652;51.318;6.202;2022-10-30T10:28:26;18.10;99.90
3281;DHT22;1652;51.318;6.202;2022-10-30T10:39:35;18.40;99.90
3281;DHT22;1652;51.318;6.202;2022-10-30T10:44:47;18.40;99.90
3281;DHT22;1652;51.318;6.202;2022-10-30T10:52:58;18.70;96.80
3281;DHT22;1652;51.318;6.202;2022-10-30T10:55:31;18.80;95.60
3281;DHT22;1652;51.318;6.202;2022-10-30T10:58:06;18.80;93.20
3281;DHT22;1652;51.318;6.202;2022-10-30T11:00:35;18.90;96.20
3281;DHT22;1652;51.318;6.202;2022-10-30T11:03:11;19.00;92.80
3281;DHT22;1652;51.318;6.202;2022-10-30T11:05:47;19.00;92.90
3281;DHT22;1652;51.318;6.202;2022-10-30T11:08:20;18.90;34.70
3281;DHT22;1652;51.318;6.202;2022-10-30T11:11:01;18.90;10.30
3281;DHT22;1652;51.318;6.202;2022-10-30T11:13:38;19.00;18.70
3281;DHT22;1652;51.318;6.202;2022-10-30T11:18:41;19.20;13.90
3281;DHT22;1652;51.318;6.202;2022-10-30T11:21:12;19.20;6.80
3281;DHT22;1652;51.318;6.202;2022-10-30T11:23:47;19.20;1.00
3281;DHT22;1652;51.318;6.202;2022-10-30T11:31:29;19.30;26.20
3281;DHT22;1652;51.318;6.202;2022-10-30T11:34:23;19.40;7.80
3281;DHT22;1652;51.318;6.202;2022-10-30T11:36:52;19.50;1.00
3281;DHT22;1652;51.318;6.202;2022-10-30T11:39:27;19.50;1.00
3281;DHT22;1652;51.318;6.202;2022-10-30T11:41:57;19.50;1.00
3281;DHT22;1652;51.318;6.202;2022-10-30T11:44:47;19.50;1.00
3281;DHT22;1652;51.318;6.202;2022-10-30T11:47:17;19.60;1.00
3281;DHT22;1652;51.318;6.202;2022-10-30T11:49:53;19.60;1.00
3281;DHT22;1652;51.318;6.202;2022-10-30T11:52:24;19.60;1.00
3281;DHT22;1652;51.318;6.202;2022-10-30T11:54:59;19.50;1.00
3281;DHT22;1652;51.318;6.202;2022-10-30T11:57:42;19.70;1.00
3281;DHT22;1652;51.318;6.202;2022-10-30T12:00:31;19.60;1.00
3281;DHT22;1652;51.318;6.202;2022-10-30T12:03:00;19.50;3.20
3281;DHT22;1652;51.318;6.202;2022-10-30T12:05:39;19.60;1.00
3281;DHT22;1652;51.318;6.202;2022-10-30T12:10:54;19.90;1.00
3281;DHT22;1652;51.318;6.202;2022-10-30T12:13:22;19.90;1.00
3281;DHT22;1652;51.318;6.202;2022-10-30T12:16:06;19.80;1.00
3281;DHT22;1652;51.318;6.202;2022-10-30T12:18:33;19.80;1.00
3281;DHT22;1652;51.318;6.202;2022-10-30T12:21:01;19.90;1.00
3281;DHT22;1652;51.318;6.202;2022-10-30T12:23:29;19.80;1.00
3281;DHT22;1652;51.318;6.202;2022-10-30T12:25:59;19.90;1.00
3281;DHT22;1652;51.318;6.202;2022-10-30T12:28:31;19.90;1.00
3281;DHT22;1652;51.318;6.202;2022-10-30T12:31:09;20.00;1.00
3281;DHT22;1652;51.318;6.202;2022-10-30T12:36:15;20.00;1.00
3281;DHT22;1652;51.318;6.202;2022-10-30T12:38:48;20.10;1.00
3281;DHT22;1652;51.318;6.202;2022-10-30T12:41:21;20.00;1.00
3281;DHT22;1652;51.318;6.202;2022-10-30T12:43:58;20.00;1.00
3281;DHT22;1652;51.318;6.202;2022-10-30T12:47:12;20.10;1.00
3281;DHT22;1652;51.318;6.202;2022-10-30T12:57:39;20.40;1.00
3281;DHT22;1652;51.318;6.202;2022-10-30T13:00:11;20.40;1.00
3281;DHT22;1652;51.318;6.202;2022-10-30T13:05:32;20.40;1.00
3281;DHT22;1652;51.318;6.202;2022-10-30T13:10:48;20.50;1.00
3281;DHT22;1652;51.318;6.202;2022-10-30T13:13:24;20.50;1.00
3281;DHT22;1652;51.318;6.202;2022-10-30T13:15:54;20.70;1.00
3281;DHT22;1652;51.318;6.202;2022-10-30T13:18:25;20.70;1.00
3281;DHT22;1652;51.318;6.202;2022-10-30T13:28:52;20.80;1.00
3281;DHT22;1652;51.318;6.202;2022-10-30T13:34:28;20.90;1.00
3281;DHT22;1652;51.318;6.202;2022-10-30T13:37:03;20.90;1.00
3281;DHT22;1652;51.318;6.202;2022-10-30T13:54:09;20.80;1.00
3281;DHT22;1652;51.318;6.202;2022-10-30T13:56:39;20.70;1.00
3281;DHT22;1652;51.318;6.202;2022-10-30T14:02:38;20.60;1.00
3281;DHT22;1652;51.318;6.202;2022-10-30T14:05:33;20.50;1.00
3281;DHT22;1652;51.318;6.202;2022-10-30T14:08:34;20.40;1.00
3281;DHT22;1652;51.318;6.202;2022-10-30T14:11:04;20.40;1.00
3281;DHT22;1652;51.318;6.202;2022-10-30T14:16:05;20.30;1.00
3281;DHT22;1652;51.318;6.202;2022-10-30T14:18:59;20.40;1.00
3281;DHT22;1652;51.318;6.202;2022-10-30T14:21:52;20.30;1.00
3281;DHT22;1652;51.318;6.202;2022-10-30T14:24:33;20.30;1.00
3281;DHT22;1652;51.318;6.202;2022-10-30T14:29:44;20.30;1.00
3281;DHT22;1652;51.318;6.202;2022-10-30T14:40:29;20.20;1.00
3281;DHT22;1652;51.318;6.202;2022-10-30T14:43:00;20.10;15.00
3281;DHT22;1652;51.318;6.202;2022-10-30T14:45:32;19.90;19.30
3281;DHT22;1652;51.318;6.202;2022-10-30T14:51:20;19.80;45.10
3281;DHT22;1652;51.318;6.202;2022-10-30T14:53:58;19.70;58.50
3281;DHT22;1652;51.318;6.202;2022-10-30T14:56:34;19.70;58.70
3281;DHT22;1652;51.318;6.202;2022-10-30T15:14:48;19.40;94.70
3281;DHT22;1652;51.318;6.202;2022-10-30T15:19:50;19.30;99.90
3281;DHT22;1652;51.318;6.202;2022-10-30T15:22:20;19.20;99.90
3281;DHT22;1652;51.318;6.202;2022-10-30T15:24:49;19.10;99.90
3281;DHT22;1652;51.318;6.202;2022-10-30T15:27:18;19.10;99.90
3281;DHT22;1652;51.318;6.202;2022-10-30T15:29:53;19.00;99.90
3281;DHT22;1652;51.318;6.202;2022-10-30T15:32:22;18.90;99.90
3281;DHT22;1652;51.318;6.202;2022-10-30T15:34:58;18.80;99.90
3281;DHT22;1652;51.318;6.202;2022-10-30T15:37:32;18.70;99.90
3281;DHT22;1652;51.318;6.202;2022-10-30T15:40:19;18.60;99.90
3281;DHT22;1652;51.318;6.202;2022-10-30T15:42:47;18.50;99.90
3281;DHT22;1652;51.318;6.202;2022-10-30T15:45:18;18.40;99.90
3281;DHT22;1652;51.318;6.202;2022-10-30T15:47:47;18.30;99.90
3281;DHT22;1652;51.318;6.202;2022-10-30T15:50:17;18.20;99.90
3281;DHT22;1652;51.318;6.202;2022-10-30T15:52:47;18.00;99.90
3281;DHT22;1652;51.318;6.202;2022-10-30T15:55:16;18.00;99.90
3281;DHT22;1652;51.318;6.202;2022-10-30T15:57:50;17.90;99.90
3281;DHT22;1652;51.318;6.202;2022-10-30T16:00:35;17.70;99.90
3281;DHT22;1652;51.318;6.202;2022-10-30T16:03:03;17.40;99.90
3281;DHT22;1652;51.318;6.202;2022-10-30T16:05:32;17.40;99.90
3281;DHT22;1652;51.318;6.202;2022-10-30T16:08:00;17.30;99.90
3281;DHT22;1652;51.318;6.202;2022-10-30T16:10:32;17.10;99.90
3281;DHT22;1652;51.318;6.202;2022-10-30T16:13:00;17.00;99.90
3281;DHT22;1652;51.318;6.202;2022-10-30T16:15:31;16.80;99.90
3281;DHT22;1652;51.318;6.202;2022-10-30T16:18:22;16.70;99.90
3281;DHT22;1652;51.318;6.202;2022-10-30T16:21:04;16.60;99.90
3281;DHT22;1652;51.318;6.202;2022-10-30T16:23:53;16.50;99.90
3281;DHT22;1652;51.318;6.202;2022-10-30T16:26:25;16.40;99.90
3281;DHT22;1652;51.318;6.202;2022-10-30T16:28:52;16.30;99.90
3281;DHT22;1652;51.318;6.202;2022-10-30T16:31:19;16.20;99.90
3281;DHT22;1652;51.318;6.202;2022-10-30T16:33:47;16.10;99.90
3281;DHT22;1652;51.318;6.202;2022-10-30T16:36:16;16.10;99.90
3281;DHT22;1652;51.318;6.202;2022-10-30T16:38:46;16.00;99.90
3281;DHT22;1652;51.318;6.202;2022-10-30T16:41:14;16.00;99.90
3281;DHT22;1652;51.318;6.202;2022-10-30T16:43:42;16.00;99.90
3281;DHT22;1652;51.318;6.202;2022-10-30T16:48:45;15.90;99.90
3281;DHT22;1652;51.318;6.202;2022-10-30T16:51:15;15.90;99.90
3281;DHT22;1652;51.318;6.202;2022-10-30T16:53:47;15.90;99.90
3281;DHT22;1652;51.318;6.202;2022-10-30T16:56:29;15.90;99.90
3281;DHT22;1652;51.318;6.202;2022-10-30T16:59:11;15.90;99.90
3281;DHT22;1652;51.318;6.202;2022-10-30T17:01:39;15.90;99.90
3281;DHT22;1652;51.318;6.202;2022-10-30T17:04:12;15.80;99.90
3281;DHT22;1652;51.318;6.202;2022-10-30T17:07:15;15.80;99.90
3281;DHT22;1652;51.318;6.202;2022-10-30T17:09:48;15.80;99.90
3281;DHT22;1652;51.318;6.202;2022-10-30T17:12:27;15.90;99.90
3281;DHT22;1652;51.318;6.202;2022-10-30T17:17:33;16.20;99.90
3281;DHT22;1652;51.318;6.202;2022-10-30T17:20:02;16.30;99.90
3281;DHT22;1652;51.318;6.202;2022-10-30T17:22:30;16.40;99.90
3281;DHT22;1652;51.318;6.202;2022-10-30T17:24:58;16.40;99.90
3281;DHT22;1652;51.318;6.202;2022-10-30T17:27:33;16.40;99.90
3281;DHT22;1652;51.318;6.202;2022-10-30T17:30:02;16.40;99.90
3281;DHT22;1652;51.318;6.202;2022-10-30T17:32:43;16.40;99.90
3281;DHT22;1652;51.318;6.202;2022-10-30T17:35:16;16.30;99.90
3281;DHT22;1652;51.318;6.202;2022-10-30T17:37:45;16.20;99.90
3281;DHT22;1652;51.318;6.202;2022-10-30T17:40:13;16.20;99.90
3281;DHT22;1652;51.318;6.202;2022-10-30T17:42:40;16.10;99.90
3281;DHT22;1652;51.318;6.202;2022-10-30T17:45:13;16.10;99.90
3281;DHT22;1652;51.318;6.202;2022-10-30T17:47:40;16.10;99.90
3281;DHT22;1652;51.318;6.202;2022-10-30T17:50:08;16.10;99.90
3281;DHT22;1652;51.318;6.202;2022-10-30T17:52:35;16.10;99.90
3281;DHT22;1652;51.318;6.202;2022-10-30T17:55:16;16.10;99.90
3281;DHT22;1652;51.318;6.202;2022-10-30T17:57:45;16.10;99.90
3281;DHT22;1652;51.318;6.202;2022-10-30T18:00:12;16.10;99.90
3281;DHT22;1652;51.318;6.202;2022-10-30T18:02:39;16.10;99.90
3281;DHT22;1652;51.318;6.202;2022-10-30T18:05:15;16.00;99.90
3281;DHT22;1652;51.318;6.202;2022-10-30T18:07:43;16.00;99.90
3281;DHT22;1652;51.318;6.202;2022-10-30T18:10:10;16.00;99.90
3281;DHT22;1652;51.318;6.202;2022-10-30T18:12:38;16.00;99.90
3281;DHT22;1652;51.318;6.202;2022-10-30T18:15:27;15.90;99.90
3281;DHT22;1652;51.318;6.202;2022-10-30T18:17:55;15.90;99.90
3281;DHT22;1652;51.318;6.202;2022-10-30T18:20:22;15.90;99.90
3281;DHT22;1652;51.318;6.202;2022-10-30T18:22:49;15.90;99.90
3281;DHT22;1652;51.318;6.202;2022-10-30T18:25:25;15.90;99.90
3281;DHT22;1652;51.318;6.202;2022-10-30T18:27:52;15.90;99.90
3281;DHT22;1652;51.318;6.202;2022-10-30T18:30:19;15.90;99.90
3281;DHT22;1652;51.318;6.202;2022-10-30T18:32:47;15.90;99.90
3281;DHT22;1652;51.318;6.202;2022-10-30T18:37:46;15.80;99.90
3281;DHT22;1652;51.318;6.202;2022-10-30T18:40:13;15.70;99.90
3281;DHT22;1652;51.318;6.202;2022-10-30T18:42:41;15.70;99.90
3281;DHT22;1652;51.318;6.202;2022-10-30T18:45:17;15.70;99.90
3281;DHT22;1652;51.318;6.202;2022-10-30T18:47:45;15.60;99.90
3281;DHT22;1652;51.318;6.202;2022-10-30T18:50:12;15.60;99.90
3281;DHT22;1652;51.318;6.202;2022-10-30T18:52:39;15.60;99.90
3281;DHT22;1652;51.318;6.202;2022-10-30T18:55:16;15.50;99.90
3281;DHT22;1652;51.318;6.202;2022-10-30T18:57:44;15.50;99.90
3281;DHT22;1652;51.318;6.202;2022-10-30T19:00:13;15.40;99.90
3281;DHT22;1652;51.318;6.202;2022-10-30T19:02:41;15.50;99.90